sensor_id;sensor_type;location;lat;lon;timestamp;pressure;altitude;pressure_sealevel;temperature;humidity
57250;BME280;43102;52.014;-0.680;2023-11-21T00:00:00;100575;;;13.97;68.39
57250;BME280;43102;52.014;-0.680;2023-11-21T00:01:00;100589;;;14.00;68.31
57250;BME280;43102;52.014;-0.680;2023-11-21T00:02:00;100589;;;14.00;68.31
57250;BME280;43102;52.014;-0.680;2023-11-21T00:03:00;100589;;;14.00;68.31
57250;BME280;43102;52.014;-0.680;2023-11-21T00:04:00;100589;;;14.00;68.31
57250;BME280;43102;52.014;-0.680;2023-11-21T00:05:00;100589;;;14.00;68.31
57250;BME280;43102;52.014;-0.680;2023-11-21T00:06:00;100596;;;14.00;68.49
57250;BME280;43102;52.014;-0.680;2023-11-21T00:07:00;100596;;;14.00;68.49
57250;BME280;43102;52.014;-0.680;2023-11-21T00:08:00;100596;;;14.00;68.49
57250;BME280;43102;52.014;-0.680;2023-11-21T00:09:00;100596;;;14.00;68.49
57250;BME280;43102;52.014;-0.680;2023-11-21T00:10:00;100596;;;14.00;68.49
57250;BME280;43102;52.014;-0.680;2023-11-21T00:11:00;100606;;;13.96;68.75
57250;BME280;43102;52.014;-0.680;2023-11-21T00:12:00;100606;;;13.96;68.75
57250;BME280;43102;52.014;-0.680;2023-11-21T00:13:00;100606;;;13.96;68.75
57250;BME280;43102;52.014;-0.680;2023-11-21T00:14:00;100606;;;13.96;68.75
57250;BME280;43102;52.014;-0.680;2023-11-21T00:15:00;100606;;;13.96;68.75
57250;BME280;43102;52.014;-0.680;2023-11-21T00:16:00;100615;;;13.92;69.06
57250;BME280;43102;52.014;-0.680;2023-11-21T00:17:00;100615;;;13.92;69.06
57250;BME280;43102;52.014;-0.680;2023-11-21T00:18:00;100615;;;13.92;69.06
57250;BME280;43102;52.014;-0.680;2023-11-21T00:19:00;100615;;;13.92;69.06
57250;BME280;43102;52.014;-0.680;2023-11-21T00:20:00;100615;;;13.92;69.06
57250;BME280;43102;52.014;-0.680;2023-11-21T00:21:00;100621;;;13.94;69.14
57250;BME280;43102;52.014;-0.680;2023-11-21T00:22:00;100621;;;13.94;69.14
57250;BME280;43102;52.014;-0.680;2023-11-21T00:23:00;100621;;;13.94;69.14
57250;BME280;43102;52.014;-0.680;2023-11-21T00:24:00;100621;;;13.94;69.14
57250;BME280;43102;52.014;-0.680;2023-11-21T00:25:00;100621;;;13.94;69.14
57250;BME280;43102;52.014;-0.680;2023-11-21T00:26:00;100634;;;14.00;68.97
57250;BME280;43102;52.014;-0.680;2023-11-21T00:27:00;100634;;;14.00;68.97
57250;BME280;43102;52.014;-0.680;2023-11-21T00:28:00;100634;;;14.00;68.97
57250;BME280;43102;52.014;-0.680;2023-11-21T00:29:00;100634;;;14.00;68.97
57250;BME280;43102;52.014;-0.680;2023-11-21T00:30:00;100634;;;14.00;68.97
57250;BME280;43102;52.014;-0.680;2023-11-21T00:31:00;100638;;;13.95;69.38
57250;BME280;43102;52.014;-0.680;2023-11-21T00:32:00;100638;;;13.95;69.38
57250;BME280;43102;52.014;-0.680;2023-11-21T00:33:00;100638;;;13.95;69.38
57250;BME280;43102;52.014;-0.680;2023-11-21T00:34:00;100638;;;13.95;69.38
57250;BME280;43102;52.014;-0.680;2023-11-21T00:35:00;100638;;;13.95;69.38
57250;BME280;43102;52.014;-0.680;2023-11-21T00:36:00;100638;;;13.97;69.42
57250;BME280;43102;52.014;-0.680;2023-11-21T00:37:00;100638;;;13.97;69.42
57250;BME280;43102;52.014;-0.680;2023-11-21T00:38:00;100638;;;13.97;69.42
57250;BME280;43102;52.014;-0.680;2023-11-21T00:39:00;100638;;;13.97;69.42
57250;BME280;43102;52.014;-0.680;2023-11-21T00:40:00;100638;;;13.97;69.42
57250;BME280;43102;52.014;-0.680;2023-11-21T00:41:00;100642;;;13.80;70.23
57250;BME280;43102;52.014;-0.680;2023-11-21T00:42:00;100642;;;13.80;70.23
57250;BME280;43102;52.014;-0.680;2023-11-21T00:43:00;100642;;;13.80;70.23
57250;BME280;43102;52.014;-0.680;2023-11-21T00:44:00;100642;;;13.80;70.23
57250;BME280;43102;52.014;-0.680;2023-11-21T00:45:00;100642;;;13.80;70.23
57250;BME280;43102;52.014;-0.680;2023-11-21T00:46:03;100643;;;13.74;70.82
57250;BME280;43102;52.014;-0.680;2023-11-21T00:47:00;100643;;;13.74;70.82
57250;BME280;43102;52.014;-0.680;2023-11-21T00:48:00;100643;;;13.74;70.82
57250;BME280;43102;52.014;-0.680;2023-11-21T00:49:00;100643;;;13.74;70.82
57250;BME280;43102;52.014;-0.680;2023-11-21T00:50:00;100643;;;13.74;70.82
57250;BME280;43102;52.014;-0.680;2023-11-21T00:51:00;100649;;;13.96;70.01
57250;BME280;43102;52.014;-0.680;2023-11-21T00:52:00;100649;;;13.96;70.01
57250;BME280;43102;52.014;-0.680;2023-11-21T00:53:00;100649;;;13.96;70.01
57250;BME280;43102;52.014;-0.680;2023-11-21T00:54:00;100649;;;13.96;70.01
57250;BME280;43102;52.014;-0.680;2023-11-21T00:55:00;100649;;;13.96;70.01
57250;BME280;43102;52.014;-0.680;2023-11-21T00:56:00;100649;;;13.92;70.19
57250;BME280;43102;52.014;-0.680;2023-11-21T00:57:00;100649;;;13.92;70.19
57250;BME280;43102;52.014;-0.680;2023-11-21T00:58:00;100649;;;13.92;70.19
57250;BME280;43102;52.014;-0.680;2023-11-21T00:59:00;100649;;;13.92;70.19
57250;BME280;43102;52.014;-0.680;2023-11-21T01:00:00;100649;;;13.92;70.19
57250;BME280;43102;52.014;-0.680;2023-11-21T01:01:00;100664;;;13.90;70.29
57250;BME280;43102;52.014;-0.680;2023-11-21T01:02:00;100664;;;13.90;70.29
57250;BME280;43102;52.014;-0.680;2023-11-21T01:03:00;100664;;;13.90;70.29
57250;BME280;43102;52.014;-0.680;2023-11-21T01:04:00;100664;;;13.90;70.29
57250;BME280;43102;52.014;-0.680;2023-11-21T01:05:00;100664;;;13.90;70.29
57250;BME280;43102;52.014;-0.680;2023-11-21T01:06:00;100667;;;13.93;70.29
57250;BME280;43102;52.014;-0.680;2023-11-21T01:07:00;100667;;;13.93;70.29
57250;BME280;43102;52.014;-0.680;2023-11-21T01:08:00;100667;;;13.93;70.29
57250;BME280;43102;52.014;-0.680;2023-11-21T01:09:00;100667;;;13.93;70.29
57250;BME280;43102;52.014;-0.680;2023-11-21T01:10:00;100667;;;13.93;70.29
57250;BME280;43102;52.014;-0.680;2023-11-21T01:11:00;100668;;;13.81;70.82
57250;BME280;43102;52.014;-0.680;2023-11-21T01:12:00;100668;;;13.81;70.82
57250;BME280;43102;52.014;-0.680;2023-11-21T01:13:00;100668;;;13.81;70.82
57250;BME280;43102;52.014;-0.680;2023-11-21T01:14:00;100668;;;13.81;70.82
57250;BME280;43102;52.014;-0.680;2023-11-21T01:15:00;100668;;;13.81;70.82
57250;BME280;43102;52.014;-0.680;2023-11-21T01:16:00;100669;;;13.76;71.08
57250;BME280;43102;52.014;-0.680;2023-11-21T01:17:00;100669;;;13.76;71.08
57250;BME280;43102;52.014;-0.680;2023-11-21T01:18:00;100669;;;13.76;71.08
57250;BME280;43102;52.014;-0.680;2023-11-21T01:19:00;100669;;;13.76;71.08
57250;BME280;43102;52.014;-0.680;2023-11-21T01:20:01;100669;;;13.76;71.08
57250;BME280;43102;52.014;-0.680;2023-11-21T01:21:00;100679;;;13.81;71.06
57250;BME280;43102;52.014;-0.680;2023-11-21T01:22:00;100679;;;13.81;71.06
57250;BME280;43102;52.014;-0.680;2023-11-21T01:23:00;100679;;;13.81;71.06
57250;BME280;43102;52.014;-0.680;2023-11-21T01:24:00;100679;;;13.81;71.06
57250;BME280;43102;52.014;-0.680;2023-11-21T01:25:00;100679;;;13.81;71.06
57250;BME280;43102;52.014;-0.680;2023-11-21T01:26:00;100685;;;13.96;70.56
57250;BME280;43102;52.014;-0.680;2023-11-21T01:27:00;100685;;;13.96;70.56
57250;BME280;43102;52.014;-0.680;2023-11-21T01:28:00;100685;;;13.96;70.56
57250;BME280;43102;52.014;-0.680;2023-11-21T01:29:00;100685;;;13.96;70.56
57250;BME280;43102;52.014;-0.680;2023-11-21T01:30:01;100685;;;13.96;70.56
57250;BME280;43102;52.014;-0.680;2023-11-21T01:31:00;100695;;;14.03;70.40
57250;BME280;43102;52.014;-0.680;2023-11-21T01:32:01;100695;;;14.03;70.40
57250;BME280;43102;52.014;-0.680;2023-11-21T01:33:00;100695;;;14.03;70.40
57250;BME280;43102;52.014;-0.680;2023-11-21T01:34:00;100695;;;14.03;70.40
57250;BME280;43102;52.014;-0.680;2023-11-21T01:35:00;100695;;;14.03;70.40
57250;BME280;43102;52.014;-0.680;2023-11-21T01:36:00;100704;;;13.98;70.52
57250;BME280;43102;52.014;-0.680;2023-11-21T01:37:00;100704;;;13.98;70.52
57250;BME280;43102;52.014;-0.680;2023-11-21T01:38:00;100704;;;13.98;70.52
57250;BME280;43102;52.014;-0.680;2023-11-21T01:39:00;100704;;;13.98;70.52
57250;BME280;43102;52.014;-0.680;2023-11-21T01:40:00;100704;;;13.98;70.52
57250;BME280;43102;52.014;-0.680;2023-11-21T01:41:00;100714;;;14.00;70.49
57250;BME280;43102;52.014;-0.680;2023-11-21T01:42:00;100714;;;14.00;70.49
57250;BME280;43102;52.014;-0.680;2023-11-21T01:43:00;100714;;;14.00;70.49
57250;BME280;43102;52.014;-0.680;2023-11-21T01:44:00;100714;;;14.00;70.49
57250;BME280;43102;52.014;-0.680;2023-11-21T01:45:00;100714;;;14.00;70.49
57250;BME280;43102;52.014;-0.680;2023-11-21T01:46:00;100717;;;13.81;70.97
57250;BME280;43102;52.014;-0.680;2023-11-21T01:47:00;100717;;;13.81;70.97
57250;BME280;43102;52.014;-0.680;2023-11-21T01:48:00;100717;;;13.81;70.97
57250;BME280;43102;52.014;-0.680;2023-11-21T01:49:00;100717;;;13.81;70.97
57250;BME280;43102;52.014;-0.680;2023-11-21T01:50:00;100717;;;13.81;70.97
57250;BME280;43102;52.014;-0.680;2023-11-21T01:51:00;100723;;;13.80;70.77
57250;BME280;43102;52.014;-0.680;2023-11-21T01:52:00;100723;;;13.80;70.77
57250;BME280;43102;52.014;-0.680;2023-11-21T01:53:00;100723;;;13.80;70.77
57250;BME280;43102;52.014;-0.680;2023-11-21T01:54:00;100723;;;13.80;70.77
57250;BME280;43102;52.014;-0.680;2023-11-21T01:55:00;100723;;;13.80;70.77
57250;BME280;43102;52.014;-0.680;2023-11-21T01:56:00;100735;;;13.66;70.61
57250;BME280;43102;52.014;-0.680;2023-11-21T01:57:00;100735;;;13.66;70.61
57250;BME280;43102;52.014;-0.680;2023-11-21T01:58:00;100735;;;13.66;70.61
57250;BME280;43102;52.014;-0.680;2023-11-21T01:59:00;100735;;;13.66;70.61
57250;BME280;43102;52.014;-0.680;2023-11-21T02:00:00;100735;;;13.66;70.61
57250;BME280;43102;52.014;-0.680;2023-11-21T02:01:00;100741;;;13.78;69.82
57250;BME280;43102;52.014;-0.680;2023-11-21T02:02:00;100741;;;13.78;69.82
57250;BME280;43102;52.014;-0.680;2023-11-21T02:03:00;100741;;;13.78;69.82
57250;BME280;43102;52.014;-0.680;2023-11-21T02:04:00;100741;;;13.78;69.82
57250;BME280;43102;52.014;-0.680;2023-11-21T02:05:00;100741;;;13.78;69.82
57250;BME280;43102;52.014;-0.680;2023-11-21T02:06:00;100754;;;13.74;69.57
57250;BME280;43102;52.014;-0.680;2023-11-21T02:07:00;100754;;;13.74;69.57
57250;BME280;43102;52.014;-0.680;2023-11-21T02:08:00;100754;;;13.74;69.57
57250;BME280;43102;52.014;-0.680;2023-11-21T02:09:00;100754;;;13.74;69.57
57250;BME280;43102;52.014;-0.680;2023-11-21T02:10:00;100754;;;13.74;69.57
57250;BME280;43102;52.014;-0.680;2023-11-21T02:11:00;100758;;;13.76;69.12
57250;BME280;43102;52.014;-0.680;2023-11-21T02:12:00;100758;;;13.76;69.12
57250;BME280;43102;52.014;-0.680;2023-11-21T02:13:00;100758;;;13.76;69.12
57250;BME280;43102;52.014;-0.680;2023-11-21T02:14:00;100758;;;13.76;69.12
57250;BME280;43102;52.014;-0.680;2023-11-21T02:15:01;100758;;;13.76;69.12
57250;BME280;43102;52.014;-0.680;2023-11-21T02:16:01;100762;;;13.47;69.24
57250;BME280;43102;52.014;-0.680;2023-11-21T02:17:00;100762;;;13.47;69.24
57250;BME280;43102;52.014;-0.680;2023-11-21T02:18:00;100762;;;13.47;69.24
57250;BME280;43102;52.014;-0.680;2023-11-21T02:19:01;100762;;;13.47;69.24
57250;BME280;43102;52.014;-0.680;2023-11-21T02:20:00;100762;;;13.47;69.24
57250;BME280;43102;52.014;-0.680;2023-11-21T02:21:00;100783;;;13.44;69.15
57250;BME280;43102;52.014;-0.680;2023-11-21T02:22:00;100783;;;13.44;69.15
57250;BME280;43102;52.014;-0.680;2023-11-21T02:23:00;100783;;;13.44;69.15
57250;BME280;43102;52.014;-0.680;2023-11-21T02:24:00;100783;;;13.44;69.15
57250;BME280;43102;52.014;-0.680;2023-11-21T02:25:00;100783;;;13.44;69.15
57250;BME280;43102;52.014;-0.680;2023-11-21T02:26:00;100787;;;13.48;68.86
57250;BME280;43102;52.014;-0.680;2023-11-21T02:27:00;100787;;;13.48;68.86
57250;BME280;43102;52.014;-0.680;2023-11-21T02:28:01;100787;;;13.48;68.86
57250;BME280;43102;52.014;-0.680;2023-11-21T02:29:00;100787;;;13.48;68.86
57250;BME280;43102;52.014;-0.680;2023-11-21T02:30:00;100787;;;13.48;68.86
57250;BME280;43102;52.014;-0.680;2023-11-21T02:31:00;100790;;;13.55;68.09
57250;BME280;43102;52.014;-0.680;2023-11-21T02:32:00;100790;;;13.55;68.09
57250;BME280;43102;52.014;-0.680;2023-11-21T02:33:00;100790;;;13.55;68.09
57250;BME280;43102;52.014;-0.680;2023-11-21T02:34:00;100790;;;13.55;68.09
57250;BME280;43102;52.014;-0.680;2023-11-21T02:35:00;100790;;;13.55;68.09
57250;BME280;43102;52.014;-0.680;2023-11-21T02:36:01;100802;;;13.51;67.94
57250;BME280;43102;52.014;-0.680;2023-11-21T02:37:00;100802;;;13.51;67.94
57250;BME280;43102;52.014;-0.680;2023-11-21T02:38:00;100802;;;13.51;67.94
57250;BME280;43102;52.014;-0.680;2023-11-21T02:39:00;100802;;;13.51;67.94
57250;BME280;43102;52.014;-0.680;2023-11-21T02:40:01;100802;;;13.51;67.94
57250;BME280;43102;52.014;-0.680;2023-11-21T02:41:00;100804;;;13.27;68.32
57250;BME280;43102;52.014;-0.680;2023-11-21T02:42:00;100804;;;13.27;68.32
57250;BME280;43102;52.014;-0.680;2023-11-21T02:43:00;100804;;;13.27;68.32
57250;BME280;43102;52.014;-0.680;2023-11-21T02:44:00;100804;;;13.27;68.32
57250;BME280;43102;52.014;-0.680;2023-11-21T02:45:00;100804;;;13.27;68.32
57250;BME280;43102;52.014;-0.680;2023-11-21T02:46:00;100813;;;13.28;67.99
57250;BME280;43102;52.014;-0.680;2023-11-21T02:47:00;100813;;;13.28;67.99
57250;BME280;43102;52.014;-0.680;2023-11-21T02:48:00;100813;;;13.28;67.99
57250;BME280;43102;52.014;-0.680;2023-11-21T02:49:01;100813;;;13.28;67.99
57250;BME280;43102;52.014;-0.680;2023-11-21T02:50:00;100813;;;13.28;67.99
57250;BME280;43102;52.014;-0.680;2023-11-21T02:51:00;100811;;;13.47;67.16
57250;BME280;43102;52.014;-0.680;2023-11-21T02:52:00;100811;;;13.47;67.16
57250;BME280;43102;52.014;-0.680;2023-11-21T02:53:00;100811;;;13.47;67.16
57250;BME280;43102;52.014;-0.680;2023-11-21T02:54:01;100811;;;13.47;67.16
57250;BME280;43102;52.014;-0.680;2023-11-21T02:55:01;100811;;;13.47;67.16
57250;BME280;43102;52.014;-0.680;2023-11-21T02:56:00;100821;;;13.57;66.78
57250;BME280;43102;52.014;-0.680;2023-11-21T02:57:00;100821;;;13.57;66.78
57250;BME280;43102;52.014;-0.680;2023-11-21T02:58:01;100821;;;13.57;66.78
57250;BME280;43102;52.014;-0.680;2023-11-21T02:59:00;100821;;;13.57;66.78
57250;BME280;43102;52.014;-0.680;2023-11-21T03:00:00;100821;;;13.57;66.78
57250;BME280;43102;52.014;-0.680;2023-11-21T03:01:00;100822;;;13.43;67.25
57250;BME280;43102;52.014;-0.680;2023-11-21T03:02:00;100822;;;13.43;67.25
57250;BME280;43102;52.014;-0.680;2023-11-21T03:03:00;100822;;;13.43;67.25
57250;BME280;43102;52.014;-0.680;2023-11-21T03:04:00;100822;;;13.43;67.25
57250;BME280;43102;52.014;-0.680;2023-11-21T03:05:00;100822;;;13.43;67.25
57250;BME280;43102;52.014;-0.680;2023-11-21T03:06:00;100833;;;13.23;67.52
57250;BME280;43102;52.014;-0.680;2023-11-21T03:07:00;100833;;;13.23;67.52
57250;BME280;43102;52.014;-0.680;2023-11-21T03:08:00;100833;;;13.23;67.52
57250;BME280;43102;52.014;-0.680;2023-11-21T03:09:00;100833;;;13.23;67.52
57250;BME280;43102;52.014;-0.680;2023-11-21T03:10:00;100833;;;13.23;67.52
57250;BME280;43102;52.014;-0.680;2023-11-21T03:11:00;100835;;;13.27;67.40
57250;BME280;43102;52.014;-0.680;2023-11-21T03:12:00;100835;;;13.27;67.40
57250;BME280;43102;52.014;-0.680;2023-11-21T03:13:00;100835;;;13.27;67.40
57250;BME280;43102;52.014;-0.680;2023-11-21T03:14:00;100835;;;13.27;67.40
57250;BME280;43102;52.014;-0.680;2023-11-21T03:15:00;100835;;;13.27;67.40
57250;BME280;43102;52.014;-0.680;2023-11-21T03:16:00;100841;;;13.18;67.71
57250;BME280;43102;52.014;-0.680;2023-11-21T03:17:00;100841;;;13.18;67.71
57250;BME280;43102;52.014;-0.680;2023-11-21T03:18:00;100841;;;13.18;67.71
57250;BME280;43102;52.014;-0.680;2023-11-21T03:19:00;100841;;;13.18;67.71
57250;BME280;43102;52.014;-0.680;2023-11-21T03:20:00;100841;;;13.18;67.71
57250;BME280;43102;52.014;-0.680;2023-11-21T03:21:00;100848;;;13.15;67.79
57250;BME280;43102;52.014;-0.680;2023-11-21T03:22:00;100848;;;13.15;67.79
57250;BME280;43102;52.014;-0.680;2023-11-21T03:23:00;100848;;;13.15;67.79
57250;BME280;43102;52.014;-0.680;2023-11-21T03:24:00;100848;;;13.15;67.79
57250;BME280;43102;52.014;-0.680;2023-11-21T03:25:00;100848;;;13.15;67.79
57250;BME280;43102;52.014;-0.680;2023-11-21T03:26:00;100852;;;13.10;67.76
57250;BME280;43102;52.014;-0.680;2023-11-21T03:27:00;100852;;;13.10;67.76
57250;BME280;43102;52.014;-0.680;2023-11-21T03:28:00;100852;;;13.10;67.76
57250;BME280;43102;52.014;-0.680;2023-11-21T03:29:00;100852;;;13.10;67.76
57250;BME280;43102;52.014;-0.680;2023-11-21T03:30:00;100852;;;13.10;67.76
57250;BME280;43102;52.014;-0.680;2023-11-21T03:31:00;100854;;;13.11;67.43
57250;BME280;43102;52.014;-0.680;2023-11-21T03:32:00;100854;;;13.11;67.43
57250;BME280;43102;52.014;-0.680;2023-11-21T03:33:00;100854;;;13.11;67.43
57250;BME280;43102;52.014;-0.680;2023-11-21T03:34:00;100854;;;13.11;67.43
57250;BME280;43102;52.014;-0.680;2023-11-21T03:35:00;100854;;;13.11;67.43
57250;BME280;43102;52.014;-0.680;2023-11-21T03:36:00;100860;;;13.12;67.42
57250;BME280;43102;52.014;-0.680;2023-11-21T03:37:00;100860;;;13.12;67.42
57250;BME280;43102;52.014;-0.680;2023-11-21T03:38:00;100860;;;13.12;67.42
57250;BME280;43102;52.014;-0.680;2023-11-21T03:39:00;100860;;;13.12;67.42
57250;BME280;43102;52.014;-0.680;2023-11-21T03:40:00;100860;;;13.12;67.42
57250;BME280;43102;52.014;-0.680;2023-11-21T03:41:00;100866;;;12.91;67.75
57250;BME280;43102;52.014;-0.680;2023-11-21T03:42:00;100866;;;12.91;67.75
57250;BME280;43102;52.014;-0.680;2023-11-21T03:43:00;100866;;;12.91;67.75
57250;BME280;43102;52.014;-0.680;2023-11-21T03:44:00;100866;;;12.91;67.75
57250;BME280;43102;52.014;-0.680;2023-11-21T03:45:00;100866;;;12.91;67.75
57250;BME280;43102;52.014;-0.680;2023-11-21T03:46:00;100873;;;13.00;67.23
57250;BME280;43102;52.014;-0.680;2023-11-21T03:47:00;100873;;;13.00;67.23
57250;BME280;43102;52.014;-0.680;2023-11-21T03:48:00;100873;;;13.00;67.23
57250;BME280;43102;52.014;-0.680;2023-11-21T03:49:00;100873;;;13.00;67.23
57250;BME280;43102;52.014;-0.680;2023-11-21T03:50:00;100873;;;13.00;67.23
57250;BME280;43102;52.014;-0.680;2023-11-21T03:51:00;100876;;;12.98;67.22
57250;BME280;43102;52.014;-0.680;2023-11-21T03:52:00;100876;;;12.98;67.22
57250;BME280;43102;52.014;-0.680;2023-11-21T03:53:00;100876;;;12.98;67.22
57250;BME280;43102;52.014;-0.680;2023-11-21T03:54:00;100876;;;12.98;67.22
57250;BME280;43102;52.014;-0.680;2023-11-21T03:55:00;100876;;;12.98;67.22
57250;BME280;43102;52.014;-0.680;2023-11-21T03:56:01;100887;;;13.21;66.41
57250;BME280;43102;52.014;-0.680;2023-11-21T03:57:00;100887;;;13.21;66.41
57250;BME280;43102;52.014;-0.680;2023-11-21T03:58:00;100887;;;13.21;66.41
57250;BME280;43102;52.014;-0.680;2023-11-21T03:59:00;100887;;;13.21;66.41
57250;BME280;43102;52.014;-0.680;2023-11-21T04:00:00;100887;;;13.21;66.41
57250;BME280;43102;52.014;-0.680;2023-11-21T04:01:00;100901;;;12.98;66.77
57250;BME280;43102;52.014;-0.680;2023-11-21T04:02:00;100901;;;12.98;66.77
57250;BME280;43102;52.014;-0.680;2023-11-21T04:03:00;100901;;;12.98;66.77
57250;BME280;43102;52.014;-0.680;2023-11-21T04:04:00;100901;;;12.98;66.77
57250;BME280;43102;52.014;-0.680;2023-11-21T04:05:00;100901;;;12.98;66.77
57250;BME280;43102;52.014;-0.680;2023-11-21T04:06:00;100916;;;13.12;66.36
57250;BME280;43102;52.014;-0.680;2023-11-21T04:07:00;100916;;;13.12;66.36
57250;BME280;43102;52.014;-0.680;2023-11-21T04:08:00;100916;;;13.12;66.36
57250;BME280;43102;52.014;-0.680;2023-11-21T04:09:00;100916;;;13.12;66.36
57250;BME280;43102;52.014;-0.680;2023-11-21T04:10:00;100916;;;13.12;66.36
57250;BME280;43102;52.014;-0.680;2023-11-21T04:11:00;100923;;;12.93;66.06
57250;BME280;43102;52.014;-0.680;2023-11-21T04:12:00;100923;;;12.93;66.06
57250;BME280;43102;52.014;-0.680;2023-11-21T04:13:00;100923;;;12.93;66.06
57250;BME280;43102;52.014;-0.680;2023-11-21T04:14:00;100923;;;12.93;66.06
57250;BME280;43102;52.014;-0.680;2023-11-21T04:15:00;100923;;;12.93;66.06
57250;BME280;43102;52.014;-0.680;2023-11-21T04:16:00;100919;;;12.73;66.52
57250;BME280;43102;52.014;-0.680;2023-11-21T04:17:00;100919;;;12.73;66.52
57250;BME280;43102;52.014;-0.680;2023-11-21T04:18:00;100919;;;12.73;66.52
57250;BME280;43102;52.014;-0.680;2023-11-21T04:19:00;100919;;;12.73;66.52
57250;BME280;43102;52.014;-0.680;2023-11-21T04:20:00;100919;;;12.73;66.52
57250;BME280;43102;52.014;-0.680;2023-11-21T04:21:00;100919;;;12.79;65.85
57250;BME280;43102;52.014;-0.680;2023-11-21T04:22:00;100919;;;12.79;65.85
57250;BME280;43102;52.014;-0.680;2023-11-21T04:23:00;100919;;;12.79;65.85
57250;BME280;43102;52.014;-0.680;2023-11-21T04:24:00;100919;;;12.79;65.85
57250;BME280;43102;52.014;-0.680;2023-11-21T04:25:00;100919;;;12.79;65.85
57250;BME280;43102;52.014;-0.680;2023-11-21T04:26:00;100927;;;12.94;65.32
57250;BME280;43102;52.014;-0.680;2023-11-21T04:27:00;100927;;;12.94;65.32
57250;BME280;43102;52.014;-0.680;2023-11-21T04:28:00;100927;;;12.94;65.32
57250;BME280;43102;52.014;-0.680;2023-11-21T04:29:00;100927;;;12.94;65.32
57250;BME280;43102;52.014;-0.680;2023-11-21T04:30:00;100927;;;12.94;65.32
57250;BME280;43102;52.014;-0.680;2023-11-21T04:31:00;100932;;;12.98;65.40
57250;BME280;43102;52.014;-0.680;2023-11-21T04:32:01;100932;;;12.98;65.40
57250;BME280;43102;52.014;-0.680;2023-11-21T04:33:00;100932;;;12.98;65.40
57250;BME280;43102;52.014;-0.680;2023-11-21T04:34:00;100932;;;12.98;65.40
57250;BME280;43102;52.014;-0.680;2023-11-21T04:35:00;100932;;;12.98;65.40
57250;BME280;43102;52.014;-0.680;2023-11-21T04:36:00;100939;;;12.66;65.41
57250;BME280;43102;52.014;-0.680;2023-11-21T04:37:00;100939;;;12.66;65.41
57250;BME280;43102;52.014;-0.680;2023-11-21T04:38:00;100939;;;12.66;65.41
57250;BME280;43102;52.014;-0.680;2023-11-21T04:39:00;100939;;;12.66;65.41
57250;BME280;43102;52.014;-0.680;2023-11-21T04:40:00;100939;;;12.66;65.41
57250;BME280;43102;52.014;-0.680;2023-11-21T04:41:00;100945;;;12.91;64.83
57250;BME280;43102;52.014;-0.680;2023-11-21T04:42:00;100945;;;12.91;64.83
57250;BME280;43102;52.014;-0.680;2023-11-21T04:43:00;100945;;;12.91;64.83
57250;BME280;43102;52.014;-0.680;2023-11-21T04:44:00;100945;;;12.91;64.83
57250;BME280;43102;52.014;-0.680;2023-11-21T04:45:00;100945;;;12.91;64.83
57250;BME280;43102;52.014;-0.680;2023-11-21T04:46:00;100947;;;12.97;64.46
57250;BME280;43102;52.014;-0.680;2023-11-21T04:47:00;100947;;;12.97;64.46
57250;BME280;43102;52.014;-0.680;2023-11-21T04:48:00;100947;;;12.97;64.46
57250;BME280;43102;52.014;-0.680;2023-11-21T04:49:00;100947;;;12.97;64.46
57250;BME280;43102;52.014;-0.680;2023-11-21T04:50:01;100947;;;12.97;64.46
57250;BME280;43102;52.014;-0.680;2023-11-21T04:51:00;100942;;;12.90;64.32
57250;BME280;43102;52.014;-0.680;2023-11-21T04:52:00;100942;;;12.90;64.32
57250;BME280;43102;52.014;-0.680;2023-11-21T04:53:00;100942;;;12.90;64.32
57250;BME280;43102;52.014;-0.680;2023-11-21T04:54:00;100942;;;12.90;64.32
57250;BME280;43102;52.014;-0.680;2023-11-21T04:55:00;100942;;;12.90;64.32
57250;BME280;43102;52.014;-0.680;2023-11-21T04:56:00;100940;;;12.49;64.46
57250;BME280;43102;52.014;-0.680;2023-11-21T04:57:00;100940;;;12.49;64.46
57250;BME280;43102;52.014;-0.680;2023-11-21T04:58:00;100940;;;12.49;64.46
57250;BME280;43102;52.014;-0.680;2023-11-21T04:59:00;100940;;;12.49;64.46
57250;BME280;43102;52.014;-0.680;2023-11-21T05:00:00;100940;;;12.49;64.46
57250;BME280;43102;52.014;-0.680;2023-11-21T05:01:00;100957;;;12.72;63.38
57250;BME280;43102;52.014;-0.680;2023-11-21T05:02:00;100957;;;12.72;63.38
57250;BME280;43102;52.014;-0.680;2023-11-21T05:03:00;100957;;;12.72;63.38
57250;BME280;43102;52.014;-0.680;2023-11-21T05:04:00;100957;;;12.72;63.38
57250;BME280;43102;52.014;-0.680;2023-11-21T05:05:00;100957;;;12.72;63.38
57250;BME280;43102;52.014;-0.680;2023-11-21T05:06:00;100956;;;12.63;63.20
57250;BME280;43102;52.014;-0.680;2023-11-21T05:07:00;100956;;;12.63;63.20
57250;BME280;43102;52.014;-0.680;2023-11-21T05:08:00;100956;;;12.63;63.20
57250;BME280;43102;52.014;-0.680;2023-11-21T05:09:00;100956;;;12.63;63.20
57250;BME280;43102;52.014;-0.680;2023-11-21T05:10:00;100956;;;12.63;63.20
57250;BME280;43102;52.014;-0.680;2023-11-21T05:11:00;100962;;;12.62;62.86
57250;BME280;43102;52.014;-0.680;2023-11-21T05:12:00;100962;;;12.62;62.86
57250;BME280;43102;52.014;-0.680;2023-11-21T05:13:00;100962;;;12.62;62.86
57250;BME280;43102;52.014;-0.680;2023-11-21T05:14:00;100962;;;12.62;62.86
57250;BME280;43102;52.014;-0.680;2023-11-21T05:15:00;100962;;;12.62;62.86
57250;BME280;43102;52.014;-0.680;2023-11-21T05:16:00;100973;;;12.87;62.37
57250;BME280;43102;52.014;-0.680;2023-11-21T05:17:00;100973;;;12.87;62.37
57250;BME280;43102;52.014;-0.680;2023-11-21T05:18:00;100973;;;12.87;62.37
57250;BME280;43102;52.014;-0.680;2023-11-21T05:19:00;100973;;;12.87;62.37
57250;BME280;43102;52.014;-0.680;2023-11-21T05:20:00;100973;;;12.87;62.37
57250;BME280;43102;52.014;-0.680;2023-11-21T05:21:00;100996;;;12.20;63.17